Time;durP1;ratioP1;P1;durP2;ratioP2;P2;SDS_P1;SDS_P2;PMS_P1;PMS_P2;Temp;Humidity;BMP_temperature;BMP_pressure;BME280_temperature;BME280_humidity;BME280_pressure;Samples;Min_cycle;Max_cycle;Signal;HPM_P1;HPM_P2
2023/04/04 00:00:32;;;;;;;8.38;4.20;;;1.00;99.90;;;;;;5058337;28;20060;-65
2023/04/04 00:02:58;;;;;;;9.10;4.80;;;1.00;99.90;;;;;;5063956;28;20855;-65
2023/04/04 00:05:24;;;;;;;10.05;4.43;;;0.90;99.90;;;;;;5062355;28;20094;-65
2023/04/04 00:07:50;;;;;;;18.55;4.55;;;1.00;99.90;;;;;;5065245;28;20382;-65
2023/04/04 00:10:16;;;;;;;6.30;4.50;;;0.90;99.90;;;;;;5048136;28;21599;-68
2023/04/04 00:12:42;;;;;;;7.70;4.45;;;1.00;99.90;;;;;;5065397;28;20068;-65
2023/04/04 00:15:09;;;;;;;7.47;5.13;;;0.90;99.90;;;;;;5063473;28;20048;-65
2023/04/04 00:17:35;;;;;;;7.60;4.82;;;0.90;99.90;;;;;;5061571;28;20033;-65
2023/04/04 00:20:00;;;;;;;7.75;4.00;;;0.90;99.90;;;;;;5063537;28;20040;-65
2023/04/04 00:22:27;;;;;;;7.78;4.57;;;0.90;99.90;;;;;;5063879;28;20044;-65
2023/04/04 00:24:52;;;;;;;7.60;4.30;;;0.80;99.90;;;;;;5064242;28;20135;-65
2023/04/04 00:27:18;;;;;;;8.32;4.55;;;0.80;99.90;;;;;;5064860;28;20597;-65
2023/04/04 00:29:44;;;;;;;9.35;4.70;;;0.80;99.90;;;;;;5079060;28;20666;-65
2023/04/04 00:32:10;;;;;;;7.63;5.22;;;0.80;99.90;;;;;;5047688;28;20504;-67
2023/04/04 00:34:36;;;;;;;11.93;4.97;;;0.80;99.90;;;;;;5063219;28;20464;-64
2023/04/04 00:37:02;;;;;;;7.45;4.70;;;0.70;99.90;;;;;;5066013;28;20036;-65
2023/04/04 00:39:28;;;;;;;7.65;4.25;;;0.70;99.90;;;;;;5065774;28;20036;-65
2023/04/04 00:41:53;;;;;;;7.32;4.57;;;0.70;99.90;;;;;;5058811;28;20097;-65
2023/04/04 00:44:19;;;;;;;10.30;5.57;;;0.60;99.90;;;;;;5061225;28;20048;-65
2023/04/04 00:46:45;;;;;;;9.45;4.90;;;0.60;99.90;;;;;;5062478;28;20250;-65
2023/04/04 00:49:11;;;;;;;8.57;4.90;;;0.60;99.90;;;;;;5063430;28;20514;-65
2023/04/04 00:51:37;;;;;;;6.63;4.65;;;0.60;99.90;;;;;;5057211;28;20100;-65
2023/04/04 00:54:03;;;;;;;9.88;4.78;;;0.60;99.90;;;;;;5064125;28;20040;-65
2023/04/04 00:56:30;;;;;;;10.77;5.15;;;0.50;99.90;;;;;;5064960;28;20032;-65
2023/04/04 00:58:56;;;;;;;8.45;4.28;;;0.50;99.90;;;;;;5060276;28;20049;-65
2023/04/04 01:01:24;;;;;;;7.53;4.47;;;0.50;99.90;;;;;;5062108;28;20396;-66
2023/04/04 01:03:51;;;;;;;7.43;4.35;;;0.50;99.90;;;;;;5064217;28;20056;-65
2023/04/04 01:06:17;;;;;;;7.05;4.65;;;0.40;99.90;;;;;;5060415;28;20098;-65
2023/04/04 01:08:43;;;;;;;10.77;4.40;;;0.50;99.90;;;;;;5060472;28;20036;-65
2023/04/04 01:11:10;;;;;;;6.30;4.25;;;0.40;99.90;;;;;;5064793;28;20036;-65
2023/04/04 01:13:35;;;;;;;9.32;4.80;;;0.40;99.90;;;;;;5046153;28;20048;-65
2023/04/04 01:16:01;;;;;;;7.93;4.55;;;0.30;99.90;;;;;;5064965;28;20117;-65
2023/04/04 01:18:28;;;;;;;8.93;4.70;;;0.60;99.90;;;;;;5044061;28;20588;-65
2023/04/04 01:21:06;;;;;;;10.10;4.80;;;0.30;99.90;;;;;;5059299;28;20222;-65
2023/04/04 01:23:42;;;;;;;11.93;4.78;;;0.20;99.90;;;;;;5062197;28;20048;-65
2023/04/04 01:26:08;;;;;;;6.95;4.65;;;0.20;99.90;;;;;;5057752;28;20052;-68
2023/04/04 01:28:34;;;;;;;9.77;4.90;;;0.20;99.90;;;;;;5061003;28;20075;-65
2023/04/04 01:31:01;;;;;;;8.82;4.95;;;0.10;99.90;;;;;;5061732;28;20039;-65
2023/04/04 01:33:44;;;;;;;10.13;5.28;;;0.10;99.90;;;;;;5062952;28;20087;-65
2023/04/04 01:36:24;;;;;;;8.40;4.85;;;0.10;99.90;;;;;;5077589;28;20544;-65
2023/04/04 01:39:13;;;;;;;7.32;4.90;;;0.10;99.90;;;;;;5065914;28;20561;-65
2023/04/04 01:41:40;;;;;;;7.80;4.63;;;0.00;99.90;;;;;;5066619;28;20039;-65
2023/04/04 01:44:08;;;;;;;9.27;4.35;;;0.00;99.90;;;;;;5059170;28;20061;-65
2023/04/04 01:46:35;;;;;;;7.22;4.55;;;0.40;99.90;;;;;;5067361;28;20032;-65
2023/04/04 01:49:01;;;;;;;8.68;4.88;;;0.00;99.90;;;;;;5062125;28;20033;-65
2023/04/04 01:51:28;;;;;;;8.40;4.50;;;0.20;99.90;;;;;;5061538;28;20555;-65
2023/04/04 01:53:54;;;;;;;8.43;4.78;;;-0.10;99.90;;;;;;5062549;28;20057;-65
2023/04/04 01:56:20;;;;;;;7.25;4.72;;;-0.10;99.90;;;;;;5061894;28;20082;-65
2023/04/04 01:58:46;;;;;;;8.48;4.63;;;-0.20;99.90;;;;;;5061614;28;20033;-65
2023/04/04 02:01:11;;;;;;;7.55;4.93;;;-0.20;99.90;;;;;;5064153;28;20036;-65
2023/04/04 02:03:37;;;;;;;8.20;4.43;;;-0.20;99.90;;;;;;5060955;28;20075;-65
2023/04/04 02:06:03;;;;;;;6.13;4.80;;;-0.20;99.90;;;;;;5060735;28;20130;-65
2023/04/04 02:08:29;;;;;;;9.05;4.40;;;-0.30;99.90;;;;;;5067548;28;20048;-65
2023/04/04 02:10:57;;;;;;;11.25;5.03;;;-0.30;99.90;;;;;;5065470;28;20573;-65
2023/04/04 02:13:23;;;;;;;13.77;5.45;;;-0.30;99.90;;;;;;5065594;28;20117;-66
2023/04/04 02:15:50;;;;;;;8.23;5.20;;;-0.30;99.90;;;;;;5062851;28;20064;-66
2023/04/04 02:18:16;;;;;;;8.10;4.82;;;-0.30;99.90;;;;;;5067412;28;20116;-66
2023/04/04 02:20:41;;;;;;;9.38;5.45;;;-0.40;99.90;;;;;;5067407;28;20112;-66
2023/04/04 02:23:07;;;;;;;8.10;5.10;;;-0.40;99.90;;;;;;5066866;28;20526;-66
2023/04/04 02:25:33;;;;;;;9.57;5.20;;;-0.40;99.90;;;;;;5065179;28;20157;-66
2023/04/04 02:27:58;;;;;;;8.07;4.95;;;-0.40;99.90;;;;;;5080995;28;20051;-66
2023/04/04 02:30:24;;;;;;;10.75;5.03;;;0.00;99.90;;;;;;5067745;28;20586;-66
2023/04/04 02:32:50;;;;;;;8.88;4.70;;;-0.50;99.90;;;;;;5059580;28;20474;-65
2023/04/04 02:35:16;;;;;;;7.20;4.70;;;-0.50;99.90;;;;;;5065342;28;20150;-65
2023/04/04 02:37:44;;;;;;;7.97;5.13;;;-0.50;99.90;;;;;;5063887;28;20058;-65
2023/04/04 02:40:11;;;;;;;9.95;5.47;;;-0.50;99.90;;;;;;5064491;28;20051;-65
2023/04/04 02:42:36;;;;;;;7.50;4.50;;;-0.60;99.90;;;;;;5065774;28;20051;-65
2023/04/04 02:45:04;;;;;;;7.18;4.60;;;-0.60;99.90;;;;;;5062410;28;20102;-65
2023/04/04 02:47:29;;;;;;;6.63;4.55;;;-0.60;99.90;;;;;;5065756;28;20440;-65
2023/04/04 02:49:55;;;;;;;6.63;4.35;;;-0.70;99.90;;;;;;5066683;28;20114;-65
2023/04/04 02:52:21;;;;;;;8.02;5.28;;;-0.70;99.90;;;;;;5061366;28;20036;-65
2023/04/04 02:54:47;;;;;;;8.57;4.35;;;-0.70;99.90;;;;;;5065484;28;20062;-65
2023/04/04 02:57:12;;;;;;;6.85;4.28;;;-0.70;99.90;;;;;;5064854;28;20083;-65
2023/04/04 02:59:38;;;;;;;7.53;4.75;;;-0.80;99.90;;;;;;5064424;28;20051;-65
2023/04/04 03:02:04;;;;;;;7.07;4.28;;;-0.80;99.90;;;;;;5047033;28;20995;-65
2023/04/04 03:04:30;;;;;;;9.93;5.03;;;-0.80;99.90;;;;;;5063222;28;20041;-65
2023/04/04 03:06:56;;;;;;;10.48;4.60;;;-0.80;99.90;;;;;;5064273;28;20033;-65
2023/04/04 03:09:22;;;;;;;7.20;4.72;;;-0.80;99.90;;;;;;5066628;28;20093;-65
2023/04/04 03:11:50;;;;;;;9.23;4.68;;;-0.90;99.90;;;;;;5065049;28;20032;-64
2023/04/04 03:14:16;;;;;;;7.00;4.47;;;-0.60;99.90;;;;;;5065294;28;20063;-65
2023/04/04 03:16:42;;;;;;;7.75;4.20;;;-0.90;99.90;;;;;;5047126;28;20032;-64
2023/04/04 03:19:08;;;;;;;7.93;4.32;;;-0.90;99.90;;;;;;5065702;28;20032;-65
2023/04/04 03:21:34;;;;;;;6.65;4.55;;;-0.90;99.90;;;;;;5048178;28;20048;-65
2023/04/04 03:23:59;;;;;;;8.23;4.38;;;-0.90;99.90;;;;;;5065163;28;20043;-65
2023/04/04 03:26:27;;;;;;;6.10;4.30;;;-0.90;99.90;;;;;;5062225;28;20032;-67
2023/04/04 03:28:52;;;;;;;8.57;4.28;;;-0.90;99.90;;;;;;5064219;28;20563;-66
2023/04/04 03:31:18;;;;;;;7.47;4.35;;;-1.00;99.90;;;;;;5066060;28;20052;-65
2023/04/04 03:33:44;;;;;;;6.18;3.97;;;-1.00;99.90;;;;;;5066334;28;20121;-65
2023/04/04 03:36:14;;;;;;;8.20;4.75;;;-1.00;99.90;;;;;;5081661;28;20171;-65
2023/04/04 03:38:40;;;;;;;7.47;4.75;;;-1.10;99.90;;;;;;5063130;28;20043;-65
2023/04/04 03:41:07;;;;;;;8.32;4.63;;;-1.10;99.90;;;;;;5066550;28;20041;-65
2023/04/04 03:43:33;;;;;;;9.95;4.55;;;-1.10;99.90;;;;;;5063668;28;20406;-64
2023/04/04 03:46:03;;;;;;;9.82;4.63;;;-1.10;99.90;;;;;;5066258;28;20059;-64
2023/04/04 03:48:29;;;;;;;10.43;4.93;;;-1.10;99.90;;;;;;5062078;28;20453;-64
2023/04/04 03:50:58;;;;;;;6.72;3.80;;;-1.20;99.90;;;;;;5065719;28;20060;-65
2023/04/04 03:53:25;;;;;;;9.45;4.25;;;-1.20;99.90;;;;;;5064410;28;20044;-65
2023/04/04 03:55:51;;;;;;;6.90;4.35;;;-1.20;99.90;;;;;;5059222;28;20146;-65
2023/04/04 03:58:17;;;;;;;6.03;4.00;;;-1.20;99.90;;;;;;5064685;28;20036;-65
2023/04/04 04:00:43;;;;;;;6.00;3.70;;;-1.20;99.90;;;;;;5065545;28;20056;-65
2023/04/04 04:03:08;;;;;;;7.40;4.60;;;-1.20;99.90;;;;;;5065058;28;20117;-65
2023/04/04 04:05:34;;;;;;;7.80;4.53;;;-1.20;99.90;;;;;;5048252;28;20041;-65
2023/04/04 04:08:00;;;;;;;8.07;4.53;;;-1.20;99.90;;;;;;5065167;28;20033;-65
2023/04/04 04:10:26;;;;;;;7.65;4.63;;;-1.30;99.90;;;;;;5064062;28;20122;-65
2023/04/04 04:12:51;;;;;;;7.13;5.05;;;-1.30;99.90;;;;;;5059762;28;20090;-65
2023/04/04 04:15:17;;;;;;;10.65;5.40;;;-1.30;99.90;;;;;;5062270;28;20028;-64
2023/04/04 04:17:43;;;;;;;10.93;4.93;;;-1.30;99.90;;;;;;5062008;28;20496;-64
2023/04/04 04:20:09;;;;;;;6.25;4.60;;;-1.30;99.90;;;;;;5065131;28;20044;-64
2023/04/04 04:22:35;;;;;;;7.55;4.82;;;-1.30;99.90;;;;;;5063151;28;20063;-65
2023/04/04 04:25:01;;;;;;;9.00;5.45;;;-1.30;99.90;;;;;;5063489;28;20123;-65
2023/04/04 04:27:28;;;;;;;9.15;5.30;;;-1.30;99.90;;;;;;5060215;28;20607;-64
2023/04/04 04:29:54;;;;;;;11.23;4.85;;;-1.30;99.90;;;;;;5063573;28;20055;-65
2023/04/04 04:32:20;;;;;;;10.43;5.07;;;-1.10;99.90;;;;;;5060824;28;20658;-65
2023/04/04 04:34:45;;;;;;;7.88;4.78;;;-1.30;99.90;;;;;;5064351;28;20041;-65
2023/04/04 04:37:11;;;;;;;6.60;4.90;;;-1.30;99.90;;;;;;5064978;28;20029;-65
2023/04/04 04:39:37;;;;;;;9.52;5.72;;;-1.10;99.90;;;;;;5065719;28;21846;-65
2023/04/04 04:42:03;;;;;;;12.35;5.00;;;-1.40;99.90;;;;;;5060845;28;20032;-65
2023/04/04 04:44:28;;;;;;;9.43;5.20;;;-1.40;99.90;;;;;;5065050;28;20143;-64
2023/04/04 04:46:54;;;;;;;10.95;5.00;;;-1.40;99.90;;;;;;5065282;28;20127;-65
2023/04/04 04:49:20;;;;;;;9.50;5.10;;;-1.40;99.90;;;;;;5063667;28;20043;-65
2023/04/04 04:51:46;;;;;;;9.07;6.00;;;-1.50;99.90;;;;;;5064509;28;20037;-65
2023/04/04 04:54:12;;;;;;;12.27;6.07;;;-1.40;99.90;;;;;;5062877;28;20183;-65
2023/04/04 04:56:38;;;;;;;10.18;6.35;;;-1.50;99.90;;;;;;5047067;28;20119;-65
2023/04/04 04:59:06;;;;;;;9.15;5.47;;;-1.50;99.90;;;;;;5063491;28;20028;-64
2023/04/04 05:01:31;;;;;;;9.65;5.55;;;-1.50;99.90;;;;;;5056131;28;20076;-65
2023/04/04 05:03:57;;;;;;;9.07;5.93;;;-1.50;99.90;;;;;;5063729;28;20079;-65
2023/04/04 05:06:23;;;;;;;7.22;5.75;;;-1.50;99.90;;;;;;5063625;28;20122;-65
2023/04/04 05:08:49;;;;;;;7.68;4.85;;;-1.50;99.90;;;;;;5064544;28;20472;-65
2023/04/04 05:11:14;;;;;;;11.27;4.75;;;-1.50;99.90;;;;;;5063763;28;20604;-65
2023/04/04 05:13:40;;;;;;;7.68;5.13;;;-1.50;99.90;;;;;;5024430;28;20052;-65
2023/04/04 05:16:06;;;;;;;8.00;4.57;;;-1.20;99.90;;;;;;5062358;28;20068;-65
2023/04/04 05:18:32;;;;;;;7.03;4.28;;;-1.50;99.90;;;;;;5041584;28;20047;-65
2023/04/04 05:20:58;;;;;;;8.80;4.72;;;-1.50;99.90;;;;;;5060514;28;20485;-65
2023/04/04 05:23:23;;;;;;;5.90;3.90;;;-1.50;99.90;;;;;;5050751;28;20041;-65
2023/04/04 05:25:50;;;;;;;8.77;4.65;;;-1.50;99.90;;;;;;5061856;28;20052;-65
2023/04/04 05:28:16;;;;;;;15.05;4.75;;;-1.50;99.90;;;;;;5059741;28;20642;-65
2023/04/04 05:30:42;;;;;;;7.75;4.55;;;-1.30;99.90;;;;;;5060989;28;20397;-65
2023/04/04 05:33:07;;;;;;;5.35;4.00;;;-1.50;99.90;;;;;;5064922;28;20033;-65
2023/04/04 05:35:33;;;;;;;7.07;4.03;;;-1.40;99.90;;;;;;5064441;28;20036;-65
2023/04/04 05:37:59;;;;;;;6.40;3.97;;;-1.40;99.90;;;;;;5062093;28;20305;-65
2023/04/04 05:40:24;;;;;;;7.05;3.92;;;-1.40;99.90;;;;;;5062058;28;20032;-65
2023/04/04 05:42:57;;;;;;;8.23;4.55;;;-1.40;99.90;;;;;;5065515;28;20439;-65
2023/04/04 05:45:24;;;;;;;9.52;4.28;;;-1.30;99.90;;;;;;5065477;28;20048;-65
2023/04/04 05:47:49;;;;;;;6.28;3.90;;;-0.90;99.90;;;;;;5079791;28;20076;-65
2023/04/04 05:50:15;;;;;;;9.80;4.63;;;-1.30;99.90;;;;;;5067581;28;20090;-65
2023/04/04 05:52:41;;;;;;;6.50;4.20;;;-1.20;99.90;;;;;;5064624;28;20549;-65
2023/04/04 05:55:07;;;;;;;8.85;4.38;;;-1.20;99.90;;;;;;5066006;28;20549;-65
2023/04/04 05:57:33;;;;;;;7.18;4.55;;;-1.10;99.90;;;;;;5064926;28;20123;-65
2023/04/04 05:59:59;;;;;;;7.78;4.10;;;-1.00;99.90;;;;;;5065545;28;20127;-65
2023/04/04 06:02:25;;;;;;;7.25;4.03;;;-1.00;99.90;;;;;;5064901;28;20033;-64
2023/04/04 06:04:50;;;;;;;7.60;4.22;;;-0.90;99.90;;;;;;5063959;28;20041;-65
2023/04/04 06:07:17;;;;;;;8.43;4.00;;;-0.70;99.90;;;;;;5063543;28;20036;-65
2023/04/04 06:09:43;;;;;;;9.73;4.13;;;-0.70;99.90;;;;;;5070316;28;20062;-65
2023/04/04 06:12:08;;;;;;;8.68;4.43;;;-0.60;99.90;;;;;;5064994;28;20079;-65
2023/04/04 06:14:37;;;;;;;7.15;4.53;;;-0.50;99.90;;;;;;5061671;28;20064;-65
2023/04/04 06:17:04;;;;;;;7.63;3.85;;;-0.50;99.90;;;;;;5064544;28;20494;-64
2023/04/04 06:19:30;;;;;;;7.72;4.28;;;-0.40;99.90;;;;;;5065448;28;20041;-65
2023/04/04 06:21:55;;;;;;;8.32;4.47;;;-0.30;99.90;;;;;;5062050;28;20033;-65
2023/04/04 06:24:21;;;;;;;7.80;4.05;;;-0.20;99.90;;;;;;5064671;28;20036;-65
2023/04/04 06:26:50;;;;;;;8.13;4.05;;;-0.10;99.90;;;;;;5066842;28;20048;-64
2023/04/04 06:29:19;;;;;;;7.32;4.60;;;0.00;99.90;;;;;;5063288;28;20172;-65
2023/04/04 06:31:45;;;;;;;10.75;4.32;;;0.00;99.90;;;;;;5064080;28;20035;-65
2023/04/04 06:34:10;;;;;;;6.97;4.25;;;0.10;99.90;;;;;;5065195;28;20029;-65
2023/04/04 06:36:36;;;;;;;8.00;3.78;;;0.20;99.90;;;;;;5063540;28;20048;-65
2023/04/04 06:39:02;;;;;;;8.50;3.72;;;0.20;99.90;;;;;;5063353;28;20075;-65
2023/04/04 06:41:27;;;;;;;6.68;3.70;;;0.30;99.90;;;;;;5064308;28;20068;-65
2023/04/04 06:43:53;;;;;;;5.28;3.70;;;0.30;99.90;;;;;;5068824;28;20056;-65
2023/04/04 06:46:19;;;;;;;7.90;4.25;;;0.40;99.90;;;;;;5071085;28;20127;-65
2023/04/04 06:48:45;;;;;;;6.72;3.78;;;0.40;99.90;;;;;;5069371;28;20114;-65
2023/04/04 06:51:11;;;;;;;7.38;3.92;;;0.50;99.90;;;;;;5065630;28;20501;-65
2023/04/04 06:53:37;;;;;;;5.53;3.50;;;0.50;99.90;;;;;;5065498;28;20355;-65
2023/04/04 06:56:03;;;;;;;7.20;3.92;;;0.50;99.90;;;;;;5062642;28;20041;-65
2023/04/04 06:58:29;;;;;;;7.35;3.75;;;0.60;99.90;;;;;;5043616;28;20127;-66
2023/04/04 07:00:58;;;;;;;6.45;3.88;;;0.70;99.90;;;;;;5064119;28;20111;-65
2023/04/04 07:03:25;;;;;;;6.38;3.85;;;0.70;99.90;;;;;;5063205;28;20505;-65
2023/04/04 07:05:51;;;;;;;7.10;3.70;;;1.10;99.90;;;;;;5065963;28;20045;-65
2023/04/04 07:08:17;;;;;;;3.67;3.10;;;0.80;99.90;;;;;;5059969;28;20074;-65
2023/04/04 07:10:42;;;;;;;6.25;3.30;;;0.90;99.90;;;;;;5065126;28;20043;-65
2023/04/04 07:13:08;;;;;;;5.22;3.60;;;0.90;99.90;;;;;;5066217;28;20505;-65
2023/04/04 07:15:35;;;;;;;8.45;3.20;;;1.00;99.90;;;;;;5046009;28;20090;-64
2023/04/04 07:18:01;;;;;;;5.35;2.88;;;1.00;99.90;;;;;;5042705;28;20044;-65
2023/04/04 07:20:27;;;;;;;5.57;3.13;;;1.10;99.90;;;;;;5049186;28;20117;-64
2023/04/04 07:22:53;;;;;;;9.40;3.13;;;1.20;99.90;;;;;;5048111;28;20039;-64
2023/04/04 07:25:19;;;;;;;7.00;3.58;;;1.30;99.90;;;;;;5048658;28;20067;-64
2023/04/04 07:27:45;;;;;;;7.25;3.10;;;1.40;99.90;;;;;;5048315;28;20044;-65
2023/04/04 07:30:11;;;;;;;7.97;2.95;;;1.70;99.90;;;;;;5055204;28;20036;-65
2023/04/04 07:32:37;;;;;;;4.35;2.72;;;2.70;99.90;;;;;;5047455;28;20040;-66
2023/04/04 07:35:07;;;;;;;4.72;3.00;;;4.00;99.90;;;;;;5059112;28;20044;-66
2023/04/04 07:37:35;;;;;;;6.35;3.03;;;5.20;99.90;;;;;;5066284;28;20032;-66
2023/04/04 07:40:01;;;;;;;7.45;3.00;;;6.20;99.90;;;;;;5065755;28;20478;-66
2023/04/04 07:42:29;;;;;;;8.80;3.17;;;7.40;99.90;;;;;;5065064;28;20046;-66
2023/04/04 07:44:55;;;;;;;5.28;2.80;;;8.00;99.90;;;;;;5067818;28;20056;-66
2023/04/04 07:47:21;;;;;;;5.80;2.65;;;8.80;99.90;;;;;;5067118;28;20123;-66
2023/04/04 07:49:47;;;;;;;5.22;2.58;;;9.50;99.90;;;;;;5070099;28;20041;-66
2023/04/04 07:52:12;;;;;;;4.63;3.00;;;10.00;99.70;;;;;;5069814;28;20036;-66
2023/04/04 07:54:39;;;;;;;3.83;2.50;;;10.20;96.60;;;;;;5069993;28;20049;-66
2023/04/04 07:57:05;;;;;;;5.15;2.58;;;10.50;95.60;;;;;;5068506;28;20225;-66
2023/04/04 07:59:32;;;;;;;9.13;2.60;;;10.50;95.20;;;;;;5067608;28;20024;-66
2023/04/04 08:01:57;;;;;;;5.22;2.38;;;11.30;95.60;;;;;;5051687;28;20036;-66
2023/04/04 08:04:23;;;;;;;6.25;2.45;;;11.20;93.70;;;;;;5059884;28;20600;-66
2023/04/04 08:06:49;;;;;;;6.00;2.60;;;11.50;93.10;;;;;;5070150;28;20036;-66
2023/04/04 08:09:15;;;;;;;6.18;2.20;;;11.70;91.70;;;;;;5069034;28;20513;-66
2023/04/04 08:11:41;;;;;;;6.30;2.95;;;11.60;90.40;;;;;;5068879;28;20039;-66
2023/04/04 08:14:10;;;;;;;4.07;2.17;;;12.10;91.00;;;;;;5056330;28;20052;-66
2023/04/04 08:16:37;;;;;;;6.88;2.47;;;12.20;88.20;;;;;;5068591;28;20067;-66
2023/04/04 08:19:03;;;;;;;5.28;2.45;;;12.10;86.10;;;;;;5068073;28;20044;-66
2023/04/04 08:21:29;;;;;;;3.75;2.20;;;12.10;82.80;;;;;;5068548;28;20072;-66
2023/04/04 08:23:55;;;;;;;5.80;2.45;;;12.30;82.70;;;;;;5070163;28;20039;-66
2023/04/04 08:26:21;;;;;;;4.82;2.22;;;12.30;81.70;;;;;;5050567;28;20049;-66
2023/04/04 08:28:47;;;;;;;6.97;3.13;;;12.80;81.90;;;;;;5068788;28;20486;-66
2023/04/04 08:31:13;;;;;;;4.50;2.63;;;12.90;83.30;;;;;;5062598;28;20048;-66
2023/04/04 08:33:39;;;;;;;3.88;2.42;;;13.20;80.30;;;;;;5051688;28;20036;-65
2023/04/04 08:36:05;;;;;;;2.85;2.25;;;13.10;80.10;;;;;;5069789;28;20040;-66
2023/04/04 08:38:30;;;;;;;4.35;2.40;;;12.90;80.80;;;;;;5069347;28;20041;-66
2023/04/04 08:40:57;;;;;;;3.53;2.55;;;12.90;78.20;;;;;;5067639;28;20389;-66
2023/04/04 08:43:25;;;;;;;5.97;2.60;;;13.30;77.80;;;;;;5066861;28;20053;-66
2023/04/04 08:45:53;;;;;;;4.60;2.67;;;13.60;78.20;;;;;;5067738;28;20540;-66
2023/04/04 08:48:20;;;;;;;4.82;2.40;;;14.00;77.80;;;;;;5068082;28;20036;-66
2023/04/04 08:50:46;;;;;;;6.65;2.58;;;13.90;75.20;;;;;;5068679;28;20044;-66
2023/04/04 08:53:14;;;;;;;4.60;2.40;;;13.40;73.50;;;;;;5065486;28;20044;-66
2023/04/04 08:55:42;;;;;;;4.55;2.28;;;12.70;70.00;;;;;;5033332;28;20037;-66
2023/04/04 08:58:08;;;;;;;3.83;2.50;;;12.90;72.70;;;;;;5065797;28;20556;-66
2023/04/04 09:00:33;;;;;;;3.78;2.30;;;13.70;72.70;;;;;;5068867;28;20158;-66
2023/04/04 09:03:28;;;;;;;3.92;2.65;;;13.70;73.70;;;;;;5068583;28;20115;-66
2023/04/04 09:05:57;;;;;;;3.53;2.47;;;14.00;68.90;;;;;;5068671;28;20036;-66
2023/04/04 09:08:23;;;;;;;6.00;2.30;;;14.10;69.10;;;;;;5066886;28;20040;-66
2023/04/04 09:10:50;;;;;;;9.25;2.42;;;13.90;66.70;;;;;;5062527;28;20153;-66
2023/04/04 09:13:16;;;;;;;4.88;2.20;;;14.30;68.20;;;;;;5066683;28;20591;-66
2023/04/04 09:15:52;;;;;;;5.68;2.15;;;14.10;65.80;;;;;;5084661;28;20036;-66
2023/04/04 09:18:18;;;;;;;4.82;2.17;;;14.30;67.90;;;;;;5073145;28;20120;-66
2023/04/04 09:20:46;;;;;;;6.85;2.30;;;14.40;67.50;;;;;;5072765;28;20044;-66
2023/04/04 09:23:17;;;;;;;3.50;2.00;;;15.00;65.70;;;;;;5071620;28;20042;-66
2023/04/04 09:25:51;;;;;;;3.80;2.10;;;14.60;64.30;;;;;;5072933;28;20041;-66
2023/04/04 09:28:17;;;;;;;5.70;2.42;;;14.70;64.40;;;;;;5070109;28;20041;-66
2023/04/04 09:30:44;;;;;;;3.15;2.30;;;14.80;64.90;;;;;;5072557;28;20162;-66
2023/04/04 09:33:11;;;;;;;4.35;2.45;;;15.00;64.50;;;;;;5072328;28;20063;-66
2023/04/04 09:35:40;;;;;;;4.93;2.25;;;15.00;63.50;;;;;;5071487;28;20505;-66
2023/04/04 09:38:06;;;;;;;3.85;2.28;;;15.20;63.30;;;;;;5072599;28;20040;-66
2023/04/04 09:40:35;;;;;;;6.43;2.40;;;15.20;63.20;;;;;;5054436;28;20117;-66
2023/04/04 09:43:02;;;;;;;5.90;2.65;;;15.30;64.30;;;;;;5072670;28;20133;-66
2023/04/04 09:45:33;;;;;;;5.50;2.10;;;15.30;62.30;;;;;;5066630;28;20048;-66
2023/04/04 09:47:59;;;;;;;8.48;2.40;;;15.20;62.50;;;;;;5070324;28;20570;-66
2023/04/04 09:50:27;;;;;;;3.20;2.10;;;15.00;63.10;;;;;;5069558;28;20193;-66
2023/04/04 09:52:57;;;;;;;4.93;2.05;;;15.40;63.60;;;;;;5069005;28;20052;-66
2023/04/04 09:55:39;;;;;;;4.03;2.22;;;15.20;62.70;;;;;;5066881;28;20086;-66
2023/04/04 09:58:14;;;;;;;5.28;2.33;;;14.90;61.70;;;;;;5060710;28;20033;-66
2023/04/04 10:00:43;;;;;;;4.35;2.75;;;15.00;63.80;;;;;;5065389;28;20048;-66
2023/04/04 10:03:11;;;;;;;4.45;2.30;;;14.70;62.40;;;;;;5071956;28;20044;-66
2023/04/04 10:05:37;;;;;;;4.32;2.30;;;15.10;62.50;;;;;;5068402;28;20158;-66
2023/04/04 10:08:13;;;;;;;4.07;2.33;;;15.30;60.70;;;;;;5069806;28;20578;-66
2023/04/04 10:10:47;;;;;;;6.40;2.53;;;15.10;61.30;;;;;;5070776;28;20175;-66
2023/04/04 10:13:13;;;;;;;3.28;2.08;;;14.80;60.50;;;;;;5068773;28;20052;-66
2023/04/04 10:15:43;;;;;;;4.72;2.22;;;14.10;60.70;;;;;;5068946;28;20493;-65
2023/04/04 10:18:10;;;;;;;5.72;2.15;;;13.90;62.10;;;;;;5070437;28;20459;-66
2023/04/04 10:20:36;;;;;;;3.60;2.15;;;13.60;60.40;;;;;;5072103;28;20489;-66
2023/04/04 10:23:04;;;;;;;5.97;2.20;;;13.70;62.00;;;;;;5069915;28;20123;-66
2023/04/04 10:25:30;;;;;;;3.95;2.08;;;13.40;61.30;;;;;;5069962;28;20418;-66
2023/04/04 10:27:55;;;;;;;4.53;2.38;;;13.90;61.60;;;;;;5069092;28;20348;-66
2023/04/04 10:30:21;;;;;;;5.45;2.17;;;14.20;60.20;;;;;;5069772;28;20032;-66
2023/04/04 10:33:05;;;;;;;4.50;2.50;;;14.50;59.20;;;;;;5071840;28;20095;-66
2023/04/04 10:35:33;;;;;;;3.58;2.17;;;14.70;59.30;;;;;;5071867;28;20064;-66
2023/04/04 10:38:02;;;;;;;4.15;2.20;;;14.50;60.80;;;;;;5071188;28;20045;-66
2023/04/04 10:40:36;;;;;;;4.38;2.30;;;15.20;61.00;;;;;;5068719;28;20093;-65
2023/04/04 10:43:03;;;;;;;3.83;2.22;;;15.10;60.00;;;;;;5069410;28;20036;-66
2023/04/04 10:45:31;;;;;;;3.47;2.10;;;15.20;61.00;;;;;;5050940;28;20198;-66
2023/04/04 10:47:58;;;;;;;4.18;2.20;;;15.50;58.30;;;;;;5070125;28;20040;-66
2023/04/04 10:50:25;;;;;;;4.82;2.35;;;15.20;59.10;;;;;;5070806;28;20044;-66
2023/04/04 10:52:51;;;;;;;4.85;2.35;;;15.00;58.70;;;;;;5069839;28;20040;-66
2023/04/04 10:55:18;;;;;;;3.22;1.90;;;14.40;58.70;;;;;;5071180;28;20127;-66
2023/04/04 10:57:51;;;;;;;2.75;1.95;;;14.40;56.90;;;;;;5055779;28;20045;-66
2023/04/04 11:00:19;;;;;;;2.38;1.73;;;14.30;56.90;;;;;;5070014;28;20032;-66
2023/04/04 11:03:00;;;;;;;3.22;2.22;;;14.10;57.70;;;;;;5069045;28;20037;-66
2023/04/04 11:05:40;;;;;;;2.50;1.83;;;14.20;58.10;;;;;;5056454;28;20052;-66
2023/04/04 11:08:09;;;;;;;4.88;2.00;;;13.70;53.90;;;;;;5069532;28;20040;-66
2023/04/04 11:10:41;;;;;;;3.20;1.80;;;13.20;55.90;;;;;;5064299;28;20170;-66
2023/04/04 11:13:11;;;;;;;3.90;2.38;;;13.30;56.30;;;;;;5069367;28;20040;-66
2023/04/04 11:15:48;;;;;;;5.43;1.95;;;13.60;57.00;;;;;;5069388;28;20590;-66
2023/04/04 11:18:14;;;;;;;5.00;1.90;;;13.90;57.80;;;;;;5070629;28;20067;-66
2023/04/04 11:20:44;;;;;;;4.07;2.10;;;13.40;57.40;;;;;;5063387;28;20040;-65
2023/04/04 11:23:24;;;;;;;4.45;1.80;;;13.40;58.10;;;;;;5057685;28;20043;-65
2023/04/04 11:25:58;;;;;;;3.53;1.88;;;13.40;58.60;;;;;;5068741;28;20508;-65
2023/04/04 11:28:25;;;;;;;3.70;2.10;;;13.20;56.20;;;;;;5067896;28;20102;-65
2023/04/04 11:31:16;;;;;;;4.32;2.08;;;12.90;54.50;;;;;;5068985;28;20340;-65
2023/04/04 11:34:12;;;;;;;4.60;2.05;;;12.70;54.30;;;;;;5070136;28;20079;-65
2023/04/04 11:36:39;;;;;;;3.45;1.60;;;12.70;56.40;;;;;;5064184;28;20051;-65
2023/04/04 11:39:27;;;;;;;4.22;1.92;;;12.50;54.70;;;;;;5069999;28;20588;-65
2023/04/04 11:41:57;;;;;;;4.32;2.20;;;12.70;56.40;;;;;;5070628;28;20044;-65
2023/04/04 11:44:29;;;;;;;2.85;2.20;;;12.20;57.60;;;;;;5051498;28;20048;-65
2023/04/04 11:47:19;;;;;;;3.35;1.90;;;12.20;57.90;;;;;;5066534;28;20509;-66
2023/04/04 11:49:45;;;;;;;3.08;2.00;;;12.20;58.90;;;;;;5070344;28;20044;-65
2023/04/04 11:52:16;;;;;;;3.85;2.50;;;12.20;58.60;;;;;;5070815;28;20032;-66
2023/04/04 11:54:45;;;;;;;2.88;1.67;;;12.20;57.60;;;;;;5069856;28;20037;-65
2023/04/04 11:57:13;;;;;;;3.75;2.38;;;11.70;58.60;;;;;;5068359;28;20121;-65
2023/04/04 11:59:47;;;;;;;3.03;1.98;;;11.80;60.00;;;;;;5070339;28;20044;-65
2023/04/04 12:02:18;;;;;;;3.67;2.10;;;12.00;60.10;;;;;;5070624;28;20035;-66
2023/04/04 12:04:46;;;;;;;4.22;1.95;;;12.20;59.70;;;;;;5068305;28;21057;-66
2023/04/04 12:07:13;;;;;;;3.15;2.20;;;12.20;59.40;;;;;;5069098;28;20094;-65
2023/04/04 12:09:39;;;;;;;3.15;2.00;;;12.10;58.80;;;;;;5070248;28;20118;-65
2023/04/04 12:12:06;;;;;;;2.30;1.80;;;12.30;59.90;;;;;;5068291;28;20028;-66
2023/04/04 12:14:32;;;;;;;5.28;1.98;;;12.50;57.40;;;;;;5069918;28;20066;-66
2023/04/04 12:16:59;;;;;;;4.35;2.55;;;12.50;56.90;;;;;;5066185;28;20036;-66
2023/04/04 12:19:26;;;;;;;4.65;2.03;;;12.50;57.60;;;;;;5068373;28;20046;-66
2023/04/04 12:21:53;;;;;;;5.68;2.53;;;12.70;58.70;;;;;;5068867;28;20037;-65
2023/04/04 12:24:19;;;;;;;3.45;2.38;;;12.70;58.00;;;;;;5069795;28;20372;-66
2023/04/04 12:26:47;;;;;;;5.93;2.60;;;12.80;59.30;;;;;;5069280;28;20037;-66
2023/04/04 12:29:15;;;;;;;4.93;2.60;;;13.00;60.10;;;;;;5069100;28;20091;-66
2023/04/04 12:31:43;;;;;;;3.85;2.20;;;13.30;61.30;;;;;;5068272;28;20050;-66
2023/04/04 12:34:29;;;;;;;4.40;2.15;;;13.40;60.60;;;;;;5067785;28;20418;-66
2023/04/04 12:36:56;;;;;;;7.13;2.55;;;13.30;58.00;;;;;;5069380;28;20433;-66
2023/04/04 12:39:25;;;;;;;7.05;2.28;;;13.20;58.30;;;;;;5067243;28;20041;-66
2023/04/04 12:41:52;;;;;;;4.47;2.22;;;13.20;58.70;;;;;;5067897;28;20044;-66
2023/04/04 12:44:29;;;;;;;3.75;2.15;;;13.00;59.00;;;;;;5067181;28;20283;-66
2023/04/04 12:46:59;;;;;;;3.17;1.98;;;12.80;56.80;;;;;;5069480;28;20067;-66
2023/04/04 12:49:44;;;;;;;3.95;2.13;;;12.90;58.80;;;;;;5067662;28;20072;-66